sensor_id;sensor_type;location;lat;lon;timestamp;P1;durP1;ratioP1;P2;durP2;ratioP2
49942;SDS011;36011;53.362;58.948;2023-11-22T00:01:03;7.45;;;4.13;;
49942;SDS011;36011;53.362;58.948;2023-11-22T00:04:08;11.75;;;5.90;;
49942;SDS011;36011;53.362;58.948;2023-11-22T00:07:12;12.15;;;6.97;;
49942;SDS011;36011;53.362;58.948;2023-11-22T00:10:16;12.50;;;7.32;;
49942;SDS011;36011;53.362;58.948;2023-11-22T00:13:21;15.70;;;9.05;;
49942;SDS011;36011;53.362;58.948;2023-11-22T00:16:23;18.40;;;9.45;;
49942;SDS011;36011;53.362;58.948;2023-11-22T00:19:27;19.45;;;10.35;;
49942;SDS011;36011;53.362;58.948;2023-11-22T00:22:29;23.40;;;11.40;;
49942;SDS011;36011;53.362;58.948;2023-11-22T00:25:34;26.27;;;14.07;;
49942;SDS011;36011;53.362;58.948;2023-11-22T00:28:38;12.85;;;7.45;;
49942;SDS011;36011;53.362;58.948;2023-11-22T00:31:42;30.77;;;16.42;;
49942;SDS011;36011;53.362;58.948;2023-11-22T00:34:49;66.35;;;31.38;;
49942;SDS011;36011;53.362;58.948;2023-11-22T00:40:54;79.17;;;31.70;;
49942;SDS011;36011;53.362;58.948;2023-11-22T00:43:59;78.00;;;32.88;;
49942;SDS011;36011;53.362;58.948;2023-11-22T00:47:00;93.32;;;37.35;;
49942;SDS011;36011;53.362;58.948;2023-11-22T00:50:05;91.05;;;34.28;;
49942;SDS011;36011;53.362;58.948;2023-11-22T00:53:09;91.82;;;39.33;;
49942;SDS011;36011;53.362;58.948;2023-11-22T00:56:13;102.30;;;38.92;;
49942;SDS011;36011;53.362;58.948;2023-11-22T00:59:21;96.65;;;40.58;;
49942;SDS011;36011;53.362;58.948;2023-11-22T01:02:23;99.75;;;39.00;;
49942;SDS011;36011;53.362;58.948;2023-11-22T01:05:27;94.03;;;38.38;;
49942;SDS011;36011;53.362;58.948;2023-11-22T01:08:28;86.07;;;34.00;;
49942;SDS011;36011;53.362;58.948;2023-11-22T01:11:34;78.55;;;29.20;;
49942;SDS011;36011;53.362;58.948;2023-11-22T01:14:40;70.22;;;27.48;;
49942;SDS011;36011;53.362;58.948;2023-11-22T01:17:45;79.05;;;31.73;;
49942;SDS011;36011;53.362;58.948;2023-11-22T01:20:49;86.50;;;35.83;;
49942;SDS011;36011;53.362;58.948;2023-11-22T01:23:51;81.07;;;32.25;;
49942;SDS011;36011;53.362;58.948;2023-11-22T01:26:55;89.90;;;36.13;;
49942;SDS011;36011;53.362;58.948;2023-11-22T01:29:56;79.88;;;33.90;;
49942;SDS011;36011;53.362;58.948;2023-11-22T01:33:00;74.30;;;29.10;;
49942;SDS011;36011;53.362;58.948;2023-11-22T01:36:07;67.70;;;25.65;;
49942;SDS011;36011;53.362;58.948;2023-11-22T01:39:13;63.13;;;25.77;;
49942;SDS011;36011;53.362;58.948;2023-11-22T01:42:17;52.60;;;21.52;;
49942;SDS011;36011;53.362;58.948;2023-11-22T01:45:18;56.95;;;23.05;;
49942;SDS011;36011;53.362;58.948;2023-11-22T01:48:22;49.78;;;22.40;;
49942;SDS011;36011;53.362;58.948;2023-11-22T01:51:24;51.72;;;19.75;;
49942;SDS011;36011;53.362;58.948;2023-11-22T01:54:29;41.53;;;16.27;;
49942;SDS011;36011;53.362;58.948;2023-11-22T01:57:35;33.17;;;15.75;;
49942;SDS011;36011;53.362;58.948;2023-11-22T02:01:00;32.80;;;14.85;;
49942;SDS011;36011;53.362;58.948;2023-11-22T02:04:02;30.02;;;13.13;;
49942;SDS011;36011;53.362;58.948;2023-11-22T02:07:06;33.75;;;13.05;;
49942;SDS011;36011;53.362;58.948;2023-11-22T02:10:11;41.40;;;16.33;;
49942;SDS011;36011;53.362;58.948;2023-11-22T02:13:19;38.20;;;15.95;;
49942;SDS011;36011;53.362;58.948;2023-11-22T02:16:26;46.55;;;20.25;;
49942;SDS011;36011;53.362;58.948;2023-11-22T02:19:28;38.40;;;17.58;;
49942;SDS011;36011;53.362;58.948;2023-11-22T02:22:41;34.72;;;14.15;;
49942;SDS011;36011;53.362;58.948;2023-11-22T02:25:44;20.67;;;11.43;;
49942;SDS011;36011;53.362;58.948;2023-11-22T02:28:54;24.95;;;11.75;;
49942;SDS011;36011;53.362;58.948;2023-11-22T02:31:58;19.30;;;8.82;;
49942;SDS011;36011;53.362;58.948;2023-11-22T02:35:02;25.17;;;11.23;;
49942;SDS011;36011;53.362;58.948;2023-11-22T02:38:10;18.80;;;9.63;;
49942;SDS011;36011;53.362;58.948;2023-11-22T02:41:12;16.35;;;8.38;;
49942;SDS011;36011;53.362;58.948;2023-11-22T02:44:20;19.42;;;8.88;;
49942;SDS011;36011;53.362;58.948;2023-11-22T02:47:23;15.02;;;7.97;;
49942;SDS011;36011;53.362;58.948;2023-11-22T02:50:25;15.60;;;8.23;;
49942;SDS011;36011;53.362;58.948;2023-11-22T02:53:30;16.40;;;7.35;;
49942;SDS011;36011;53.362;58.948;2023-11-22T02:56:34;19.10;;;9.38;;
49942;SDS011;36011;53.362;58.948;2023-11-22T02:59:36;14.18;;;8.60;;
49942;SDS011;36011;53.362;58.948;2023-11-22T03:02:37;13.25;;;7.13;;
49942;SDS011;36011;53.362;58.948;2023-11-22T03:05:41;24.70;;;10.48;;
49942;SDS011;36011;53.362;58.948;2023-11-22T03:08:48;17.85;;;8.98;;
49942;SDS011;36011;53.362;58.948;2023-11-22T03:11:54;24.95;;;10.35;;
49942;SDS011;36011;53.362;58.948;2023-11-22T03:14:58;22.48;;;11.25;;
49942;SDS011;36011;53.362;58.948;2023-11-22T03:18:09;30.20;;;13.38;;
49942;SDS011;36011;53.362;58.948;2023-11-22T03:21:12;37.97;;;16.25;;
49942;SDS011;36011;53.362;58.948;2023-11-22T03:24:15;37.55;;;16.58;;
49942;SDS011;36011;53.362;58.948;2023-11-22T03:27:18;36.47;;;15.75;;
49942;SDS011;36011;53.362;58.948;2023-11-22T03:30:21;29.17;;;14.18;;
49942;SDS011;36011;53.362;58.948;2023-11-22T03:33:26;26.63;;;11.85;;
49942;SDS011;36011;53.362;58.948;2023-11-22T03:36:27;21.70;;;9.93;;
49942;SDS011;36011;53.362;58.948;2023-11-22T03:39:29;19.35;;;9.35;;
49942;SDS011;36011;53.362;58.948;2023-11-22T03:42:36;17.80;;;8.75;;
49942;SDS011;36011;53.362;58.948;2023-11-22T03:45:40;15.18;;;6.85;;
49942;SDS011;36011;53.362;58.948;2023-11-22T03:48:45;15.73;;;8.80;;
49942;SDS011;36011;53.362;58.948;2023-11-22T03:51:46;17.27;;;7.43;;
49942;SDS011;36011;53.362;58.948;2023-11-22T03:54:52;12.43;;;6.90;;
49942;SDS011;36011;53.362;58.948;2023-11-22T03:57:56;14.35;;;8.02;;
49942;SDS011;36011;53.362;58.948;2023-11-22T04:01:03;17.20;;;7.80;;
49942;SDS011;36011;53.362;58.948;2023-11-22T04:04:07;20.17;;;9.65;;
49942;SDS011;36011;53.362;58.948;2023-11-22T04:07:10;17.30;;;9.40;;
49942;SDS011;36011;53.362;58.948;2023-11-22T04:10:14;18.58;;;8.68;;
49942;SDS011;36011;53.362;58.948;2023-11-22T04:13:16;17.35;;;9.07;;
49942;SDS011;36011;53.362;58.948;2023-11-22T04:16:22;19.45;;;8.45;;
49942;SDS011;36011;53.362;58.948;2023-11-22T04:19:26;18.13;;;9.40;;
49942;SDS011;36011;53.362;58.948;2023-11-22T04:22:27;17.65;;;9.90;;
49942;SDS011;36011;53.362;58.948;2023-11-22T04:25:31;22.10;;;11.23;;
49942;SDS011;36011;53.362;58.948;2023-11-22T04:28:39;20.65;;;10.88;;
49942;SDS011;36011;53.362;58.948;2023-11-22T04:31:43;24.85;;;13.05;;
49942;SDS011;36011;53.362;58.948;2023-11-22T04:34:47;29.67;;;15.05;;
49942;SDS011;36011;53.362;58.948;2023-11-22T04:37:51;27.38;;;14.02;;
49942;SDS011;36011;53.362;58.948;2023-11-22T04:40:53;20.77;;;10.98;;
49942;SDS011;36011;53.362;58.948;2023-11-22T04:43:57;14.52;;;8.85;;
49942;SDS011;36011;53.362;58.948;2023-11-22T04:50:05;18.10;;;9.95;;
49942;SDS011;36011;53.362;58.948;2023-11-22T04:53:08;14.70;;;7.97;;
49942;SDS011;36011;53.362;58.948;2023-11-22T04:56:10;6.20;;;5.18;;
49942;SDS011;36011;53.362;58.948;2023-11-22T04:59:14;6.95;;;5.00;;
49942;SDS011;36011;53.362;58.948;2023-11-22T05:02:16;6.75;;;5.00;;
49942;SDS011;36011;53.362;58.948;2023-11-22T05:05:23;20.80;;;10.63;;
49942;SDS011;36011;53.362;58.948;2023-11-22T05:08:31;9.43;;;5.72;;
49942;SDS011;36011;53.362;58.948;2023-11-22T05:11:37;5.45;;;3.97;;
49942;SDS011;36011;53.362;58.948;2023-11-22T05:14:48;5.53;;;3.65;;
49942;SDS011;36011;53.362;58.948;2023-11-22T05:17:54;5.40;;;4.22;;
49942;SDS011;36011;53.362;58.948;2023-11-22T05:21:00;10.52;;;6.32;;
49942;SDS011;36011;53.362;58.948;2023-11-22T05:24:08;10.68;;;6.13;;
49942;SDS011;36011;53.362;58.948;2023-11-22T05:27:12;14.05;;;10.05;;
49942;SDS011;36011;53.362;58.948;2023-11-22T05:30:16;17.67;;;11.30;;
49942;SDS011;36011;53.362;58.948;2023-11-22T05:33:17;51.30;;;25.00;;
49942;SDS011;36011;53.362;58.948;2023-11-22T05:36:21;53.75;;;22.55;;
49942;SDS011;36011;53.362;58.948;2023-11-22T05:39:26;50.05;;;20.10;;
49942;SDS011;36011;53.362;58.948;2023-11-22T05:42:29;33.25;;;15.23;;
49942;SDS011;36011;53.362;58.948;2023-11-22T05:45:34;23.15;;;13.07;;
49942;SDS011;36011;53.362;58.948;2023-11-22T05:48:41;14.63;;;9.80;;
49942;SDS011;36011;53.362;58.948;2023-11-22T05:51:45;10.82;;;7.03;;
49942;SDS011;36011;53.362;58.948;2023-11-22T05:54:50;9.85;;;6.68;;
49942;SDS011;36011;53.362;58.948;2023-11-22T05:57:54;15.55;;;7.75;;
49942;SDS011;36011;53.362;58.948;2023-11-22T06:00:56;11.10;;;6.38;;
49942;SDS011;36011;53.362;58.948;2023-11-22T06:04:02;9.85;;;6.75;;
49942;SDS011;36011;53.362;58.948;2023-11-22T06:07:06;10.75;;;5.68;;
49942;SDS011;36011;53.362;58.948;2023-11-22T06:10:11;11.00;;;6.20;;
49942;SDS011;36011;53.362;58.948;2023-11-22T06:13:20;11.00;;;6.45;;
49942;SDS011;36011;53.362;58.948;2023-11-22T06:16:26;11.15;;;6.85;;
49942;SDS011;36011;53.362;58.948;2023-11-22T06:19:33;23.17;;;9.15;;
49942;SDS011;36011;53.362;58.948;2023-11-22T06:22:38;24.30;;;11.55;;
49942;SDS011;36011;53.362;58.948;2023-11-22T06:25:42;21.95;;;9.95;;
49942;SDS011;36011;53.362;58.948;2023-11-22T06:28:47;24.75;;;11.75;;
49942;SDS011;36011;53.362;58.948;2023-11-22T06:31:52;21.70;;;9.93;;
49942;SDS011;36011;53.362;58.948;2023-11-22T06:34:59;20.92;;;9.80;;
49942;SDS011;36011;53.362;58.948;2023-11-22T06:38:05;17.23;;;8.77;;
49942;SDS011;36011;53.362;58.948;2023-11-22T06:41:09;15.63;;;8.30;;
49942;SDS011;36011;53.362;58.948;2023-11-22T06:44:13;16.17;;;7.82;;
49942;SDS011;36011;53.362;58.948;2023-11-22T06:47:19;18.25;;;8.68;;
49942;SDS011;36011;53.362;58.948;2023-11-22T06:50:24;21.48;;;9.65;;
49942;SDS011;36011;53.362;58.948;2023-11-22T06:53:25;18.65;;;9.10;;
49942;SDS011;36011;53.362;58.948;2023-11-22T06:56:32;15.63;;;7.72;;
49942;SDS011;36011;53.362;58.948;2023-11-22T06:59:39;13.80;;;7.53;;
49942;SDS011;36011;53.362;58.948;2023-11-22T07:02:43;14.05;;;6.30;;
49942;SDS011;36011;53.362;58.948;2023-11-22T07:05:49;15.18;;;9.50;;
49942;SDS011;36011;53.362;58.948;2023-11-22T07:08:54;22.05;;;10.35;;
49942;SDS011;36011;53.362;58.948;2023-11-22T07:11:56;17.05;;;9.07;;
49942;SDS011;36011;53.362;58.948;2023-11-22T07:14:59;17.23;;;9.05;;
49942;SDS011;36011;53.362;58.948;2023-11-22T07:18:03;18.27;;;8.93;;
49942;SDS011;36011;53.362;58.948;2023-11-22T07:21:06;20.83;;;8.43;;
49942;SDS011;36011;53.362;58.948;2023-11-22T07:24:08;15.45;;;6.85;;
49942;SDS011;36011;53.362;58.948;2023-11-22T07:27:11;11.63;;;5.27;;
49942;SDS011;36011;53.362;58.948;2023-11-22T07:30:16;12.20;;;6.65;;
49942;SDS011;36011;53.362;58.948;2023-11-22T07:33:21;15.38;;;9.18;;
49942;SDS011;36011;53.362;58.948;2023-11-22T07:36:25;12.90;;;7.03;;
49942;SDS011;36011;53.362;58.948;2023-11-22T07:39:27;17.98;;;11.00;;
49942;SDS011;36011;53.362;58.948;2023-11-22T07:42:28;16.63;;;10.13;;
49942;SDS011;36011;53.362;58.948;2023-11-22T07:45:35;11.10;;;7.55;;
49942;SDS011;36011;53.362;58.948;2023-11-22T07:48:42;12.70;;;7.00;;
49942;SDS011;36011;53.362;58.948;2023-11-22T07:51:44;12.40;;;7.88;;
49942;SDS011;36011;53.362;58.948;2023-11-22T07:54:48;10.52;;;5.10;;
49942;SDS011;36011;53.362;58.948;2023-11-22T07:57:58;9.68;;;6.63;;
49942;SDS011;36011;53.362;58.948;2023-11-22T08:00:59;8.23;;;5.50;;
49942;SDS011;36011;53.362;58.948;2023-11-22T08:04:16;11.13;;;6.20;;
49942;SDS011;36011;53.362;58.948;2023-11-22T08:07:20;8.25;;;5.40;;
49942;SDS011;36011;53.362;58.948;2023-11-22T08:10:28;5.93;;;4.03;;
49942;SDS011;36011;53.362;58.948;2023-11-22T08:13:35;8.60;;;4.50;;
49942;SDS011;36011;53.362;58.948;2023-11-22T08:16:41;7.63;;;4.85;;
49942;SDS011;36011;53.362;58.948;2023-11-22T08:19:46;6.28;;;4.15;;
49942;SDS011;36011;53.362;58.948;2023-11-22T08:22:52;9.35;;;5.53;;
49942;SDS011;36011;53.362;58.948;2023-11-22T08:25:58;7.72;;;5.40;;
49942;SDS011;36011;53.362;58.948;2023-11-22T08:29:08;6.85;;;4.70;;
49942;SDS011;36011;53.362;58.948;2023-11-22T08:32:14;5.65;;;4.38;;
49942;SDS011;36011;53.362;58.948;2023-11-22T08:35:17;7.15;;;4.90;;
49942;SDS011;36011;53.362;58.948;2023-11-22T08:38:24;6.35;;;4.28;;
49942;SDS011;36011;53.362;58.948;2023-11-22T08:41:31;7.90;;;4.13;;
49942;SDS011;36011;53.362;58.948;2023-11-22T08:44:36;7.90;;;4.30;;
49942;SDS011;36011;53.362;58.948;2023-11-22T08:47:43;7.18;;;4.18;;
49942;SDS011;36011;53.362;58.948;2023-11-22T08:50:44;5.18;;;3.72;;
49942;SDS011;36011;53.362;58.948;2023-11-22T08:53:49;8.73;;;4.82;;
49942;SDS011;36011;53.362;58.948;2023-11-22T08:56:52;5.70;;;3.58;;
49942;SDS011;36011;53.362;58.948;2023-11-22T08:59:53;6.90;;;4.63;;
49942;SDS011;36011;53.362;58.948;2023-11-22T09:03:07;6.57;;;4.50;;
49942;SDS011;36011;53.362;58.948;2023-11-22T09:06:14;7.07;;;4.53;;
49942;SDS011;36011;53.362;58.948;2023-11-22T09:09:19;8.90;;;5.15;;
49942;SDS011;36011;53.362;58.948;2023-11-22T09:12:26;9.57;;;5.80;;
49942;SDS011;36011;53.362;58.948;2023-11-22T09:15:31;11.05;;;5.72;;
49942;SDS011;36011;53.362;58.948;2023-11-22T09:18:39;8.93;;;4.90;;
49942;SDS011;36011;53.362;58.948;2023-11-22T09:21:44;8.00;;;4.55;;
49942;SDS011;36011;53.362;58.948;2023-11-22T09:24:45;9.75;;;5.15;;
49942;SDS011;36011;53.362;58.948;2023-11-22T09:27:50;12.32;;;5.65;;
49942;SDS011;36011;53.362;58.948;2023-11-22T09:31:06;14.88;;;8.10;;
49942;SDS011;36011;53.362;58.948;2023-11-22T09:34:10;16.25;;;7.82;;
49942;SDS011;36011;53.362;58.948;2023-11-22T09:37:14;15.55;;;6.45;;
49942;SDS011;36011;53.362;58.948;2023-11-22T09:40:20;8.63;;;4.22;;
49942;SDS011;36011;53.362;58.948;2023-11-22T09:43:25;11.13;;;4.68;;
49942;SDS011;36011;53.362;58.948;2023-11-22T09:46:32;12.93;;;6.07;;
49942;SDS011;36011;53.362;58.948;2023-11-22T09:49:35;13.15;;;6.70;;
49942;SDS011;36011;53.362;58.948;2023-11-22T09:52:44;13.05;;;6.45;;
49942;SDS011;36011;53.362;58.948;2023-11-22T09:55:53;12.35;;;7.10;;
49942;SDS011;36011;53.362;58.948;2023-11-22T09:58:55;13.80;;;8.10;;
49942;SDS011;36011;53.362;58.948;2023-11-22T10:01:58;12.32;;;6.75;;
49942;SDS011;36011;53.362;58.948;2023-11-22T10:05:07;14.48;;;7.45;;
49942;SDS011;36011;53.362;58.948;2023-11-22T10:08:15;10.25;;;6.13;;
49942;SDS011;36011;53.362;58.948;2023-11-22T10:11:26;7.60;;;4.65;;
49942;SDS011;36011;53.362;58.948;2023-11-22T10:14:32;10.23;;;5.28;;
49942;SDS011;36011;53.362;58.948;2023-11-22T10:17:35;5.85;;;3.15;;
49942;SDS011;36011;53.362;58.948;2023-11-22T10:20:37;6.25;;;3.95;;
49942;SDS011;36011;53.362;58.948;2023-11-22T10:23:42;8.30;;;3.90;;
49942;SDS011;36011;53.362;58.948;2023-11-22T10:26:51;7.35;;;4.20;;
49942;SDS011;36011;53.362;58.948;2023-11-22T10:29:57;5.50;;;3.35;;
49942;SDS011;36011;53.362;58.948;2023-11-22T10:33:03;8.15;;;3.97;;
49942;SDS011;36011;53.362;58.948;2023-11-22T10:36:10;5.85;;;3.22;;
49942;SDS011;36011;53.362;58.948;2023-11-22T10:39:20;6.20;;;3.58;;
49942;SDS011;36011;53.362;58.948;2023-11-22T10:42:27;7.68;;;3.92;;
49942;SDS011;36011;53.362;58.948;2023-11-22T10:45:29;7.60;;;4.32;;
49942;SDS011;36011;53.362;58.948;2023-11-22T10:48:32;6.47;;;4.25;;
49942;SDS011;36011;53.362;58.948;2023-11-22T10:51:41;7.15;;;5.05;;
49942;SDS011;36011;53.362;58.948;2023-11-22T10:54:50;7.85;;;4.25;;
49942;SDS011;36011;53.362;58.948;2023-11-22T10:58:08;7.18;;;3.95;;
49942;SDS011;36011;53.362;58.948;2023-11-22T11:01:17;4.53;;;3.78;;
49942;SDS011;36011;53.362;58.948;2023-11-22T11:04:31;7.25;;;4.38;;
49942;SDS011;36011;53.362;58.948;2023-11-22T11:07:42;6.55;;;4.55;;
49942;SDS011;36011;53.362;58.948;2023-11-22T11:10:59;7.28;;;4.47;;
49942;SDS011;36011;53.362;58.948;2023-11-22T11:14:04;8.50;;;4.90;;
49942;SDS011;36011;53.362;58.948;2023-11-22T11:17:10;6.97;;;4.30;;
49942;SDS011;36011;53.362;58.948;2023-11-22T11:20:18;6.65;;;4.65;;
49942;SDS011;36011;53.362;58.948;2023-11-22T11:23:29;10.18;;;4.40;;
49942;SDS011;36011;53.362;58.948;2023-11-22T11:26:34;8.93;;;5.05;;
49942;SDS011;36011;53.362;58.948;2023-11-22T11:29:36;9.10;;;4.18;;
49942;SDS011;36011;53.362;58.948;2023-11-22T11:32:44;4.30;;;3.40;;
49942;SDS011;36011;53.362;58.948;2023-11-22T11:35:50;7.30;;;4.55;;
49942;SDS011;36011;53.362;58.948;2023-11-22T11:39:03;6.97;;;4.00;;
49942;SDS011;36011;53.362;58.948;2023-11-22T11:42:10;8.85;;;4.03;;
49942;SDS011;36011;53.362;58.948;2023-11-22T11:45:16;7.03;;;4.45;;
49942;SDS011;36011;53.362;58.948;2023-11-22T11:48:20;4.30;;;3.70;;
49942;SDS011;36011;53.362;58.948;2023-11-22T11:51:26;4.65;;;3.47;;
49942;SDS011;36011;53.362;58.948;2023-11-22T11:54:29;12.48;;;6.85;;
49942;SDS011;36011;53.362;58.948;2023-11-22T11:57:31;5.57;;;3.80;;
49942;SDS011;36011;53.362;58.948;2023-11-22T12:00:38;6.97;;;3.70;;
49942;SDS011;36011;53.362;58.948;2023-11-22T12:03:41;8.32;;;4.28;;
49942;SDS011;36011;53.362;58.948;2023-11-22T12:06:44;6.22;;;3.08;;
49942;SDS011;36011;53.362;58.948;2023-11-22T12:09:51;5.38;;;3.75;;
49942;SDS011;36011;53.362;58.948;2023-11-22T12:12:55;5.35;;;3.58;;
49942;SDS011;36011;53.362;58.948;2023-11-22T12:15:56;5.82;;;3.40;;
49942;SDS011;36011;53.362;58.948;2023-11-22T12:19:00;3.97;;;3.00;;
49942;SDS011;36011;53.362;58.948;2023-11-22T12:22:06;5.32;;;3.58;;
49942;SDS011;36011;53.362;58.948;2023-11-22T12:25:14;7.95;;;3.60;;
49942;SDS011;36011;53.362;58.948;2023-11-22T12:28:16;7.28;;;3.40;;
49942;SDS011;36011;53.362;58.948;2023-11-22T12:31:22;7.95;;;4.07;;
49942;SDS011;36011;53.362;58.948;2023-11-22T12:34:32;6.22;;;3.40;;
49942;SDS011;36011;53.362;58.948;2023-11-22T12:37:36;6.30;;;3.28;;
49942;SDS011;36011;53.362;58.948;2023-11-22T12:40:44;9.18;;;3.70;;
49942;SDS011;36011;53.362;58.948;2023-11-22T12:44:02;8.50;;;3.78;;
49942;SDS011;36011;53.362;58.948;2023-11-22T12:47:13;7.03;;;2.80;;
49942;SDS011;36011;53.362;58.948;2023-11-22T12:50:30;8.07;;;4.03;;
49942;SDS011;36011;53.362;58.948;2023-11-22T12:53:38;6.95;;;2.97;;
49942;SDS011;36011;53.362;58.948;2023-11-22T12:56:41;8.75;;;3.28;;
49942;SDS011;36011;53.362;58.948;2023-11-22T12:59:48;5.28;;;2.97;;
49942;SDS011;36011;53.362;58.948;2023-11-22T13:02:52;5.40;;;3.47;;
49942;SDS011;36011;53.362;58.948;2023-11-22T13:05:56;6.75;;;3.17;;
49942;SDS011;36011;53.362;58.948;2023-11-22T13:08:58;8.95;;;3.55;;
49942;SDS011;36011;53.362;58.948;2023-11-22T13:12:01;10.15;;;3.85;;
49942;SDS011;36011;53.362;58.948;2023-11-22T13:15:08;7.32;;;4.07;;
49942;SDS011;36011;53.362;58.948;2023-11-22T13:18:16;7.35;;;4.15;;
49942;SDS011;36011;53.362;58.948;2023-11-22T13:21:21;7.35;;;3.75;;
49942;SDS011;36011;53.362;58.948;2023-11-22T13:24:22;7.88;;;3.08;;
49942;SDS011;36011;53.362;58.948;2023-11-22T13:27:24;8.43;;;3.58;;
49942;SDS011;36011;53.362;58.948;2023-11-22T13:30:31;13.85;;;4.13;;
49942;SDS011;36011;53.362;58.948;2023-11-22T13:36:36;17.15;;;5.15;;
49942;SDS011;36011;53.362;58.948;2023-11-22T13:39:40;13.25;;;4.97;;
49942;SDS011;36011;53.362;58.948;2023-11-22T13:42:45;12.30;;;4.10;;
49942;SDS011;36011;53.362;58.948;2023-11-22T13:45:49;16.80;;;4.45;;
49942;SDS011;36011;53.362;58.948;2023-11-22T13:48:51;15.88;;;4.78;;
49942;SDS011;36011;53.362;58.948;2023-11-22T13:51:52;9.35;;;4.10;;
49942;SDS011;36011;53.362;58.948;2023-11-22T13:54:56;8.90;;;4.30;;
49942;SDS011;36011;53.362;58.948;2023-11-22T13:58:05;8.65;;;3.80;;
49942;SDS011;36011;53.362;58.948;2023-11-22T14:01:10;9.15;;;4.45;;
49942;SDS011;36011;53.362;58.948;2023-11-22T14:04:19;9.35;;;4.32;;
49942;SDS011;36011;53.362;58.948;2023-11-22T14:07:24;8.43;;;4.18;;
49942;SDS011;36011;53.362;58.948;2023-11-22T14:10:31;10.77;;;5.20;;
49942;SDS011;36011;53.362;58.948;2023-11-22T14:13:33;8.55;;;3.70;;
49942;SDS011;36011;53.362;58.948;2023-11-22T14:16:35;8.13;;;4.10;;
49942;SDS011;36011;53.362;58.948;2023-11-22T14:19:42;7.35;;;4.05;;
49942;SDS011;36011;53.362;58.948;2023-11-22T14:22:49;7.25;;;3.95;;
49942;SDS011;36011;53.362;58.948;2023-11-22T14:25:51;8.93;;;4.75;;
49942;SDS011;36011;53.362;58.948;2023-11-22T14:28:55;12.35;;;6.00;;
49942;SDS011;36011;53.362;58.948;2023-11-22T14:32:02;9.45;;;5.13;;
49942;SDS011;36011;53.362;58.948;2023-11-22T14:35:07;11.27;;;4.78;;
49942;SDS011;36011;53.362;58.948;2023-11-22T14:38:09;11.10;;;4.88;;
49942;SDS011;36011;53.362;58.948;2023-11-22T14:44:16;9.55;;;4.63;;
49942;SDS011;36011;53.362;58.948;2023-11-22T14:47:19;8.02;;;3.80;;
49942;SDS011;36011;53.362;58.948;2023-11-22T14:50:30;8.02;;;3.65;;
49942;SDS011;36011;53.362;58.948;2023-11-22T14:53:35;9.93;;;4.40;;
49942;SDS011;36011;53.362;58.948;2023-11-22T14:56:39;14.48;;;4.68;;
49942;SDS011;36011;53.362;58.948;2023-11-22T14:59:42;15.18;;;4.93;;
49942;SDS011;36011;53.362;58.948;2023-11-22T15:02:47;13.60;;;4.95;;
49942;SDS011;36011;53.362;58.948;2023-11-22T15:05:56;13.50;;;5.45;;
49942;SDS011;36011;53.362;58.948;2023-11-22T15:09:00;15.80;;;5.47;;
49942;SDS011;36011;53.362;58.948;2023-11-22T15:12:15;9.27;;;4.63;;
49942;SDS011;36011;53.362;58.948;2023-11-22T15:15:19;12.48;;;5.38;;
49942;SDS011;36011;53.362;58.948;2023-11-22T15:18:25;11.50;;;4.75;;
49942;SDS011;36011;53.362;58.948;2023-11-22T15:21:32;11.52;;;4.30;;
49942;SDS011;36011;53.362;58.948;2023-11-22T15:24:38;10.68;;;5.07;;
49942;SDS011;36011;53.362;58.948;2023-11-22T15:27:42;4.68;;;3.03;;
49942;SDS011;36011;53.362;58.948;2023-11-22T15:30:45;11.20;;;4.30;;
49942;SDS011;36011;53.362;58.948;2023-11-22T15:33:59;10.48;;;4.70;;
49942;SDS011;36011;53.362;58.948;2023-11-22T15:37:04;9.10;;;3.90;;
49942;SDS011;36011;53.362;58.948;2023-11-22T15:40:05;9.48;;;4.15;;
49942;SDS011;36011;53.362;58.948;2023-11-22T15:43:11;14.68;;;4.47;;
49942;SDS011;36011;53.362;58.948;2023-11-22T15:46:13;12.88;;;4.68;;
49942;SDS011;36011;53.362;58.948;2023-11-22T15:49:15;12.00;;;4.45;;
49942;SDS011;36011;53.362;58.948;2023-11-22T15:52:22;12.73;;;4.22;;
49942;SDS011;36011;53.362;58.948;2023-11-22T15:55:26;9.77;;;4.32;;
49942;SDS011;36011;53.362;58.948;2023-11-22T15:58:33;15.18;;;4.60;;
49942;SDS011;36011;53.362;58.948;2023-11-22T16:01:39;12.18;;;4.75;;
49942;SDS011;36011;53.362;58.948;2023-11-22T16:04:43;7.50;;;3.50;;
49942;SDS011;36011;53.362;58.948;2023-11-22T16:07:46;10.60;;;5.25;;
49942;SDS011;36011;53.362;58.948;2023-11-22T16:10:52;10.48;;;4.13;;
49942;SDS011;36011;53.362;58.948;2023-11-22T16:13:56;13.27;;;4.18;;
49942;SDS011;36011;53.362;58.948;2023-11-22T16:17:07;7.78;;;4.15;;
49942;SDS011;36011;53.362;58.948;2023-11-22T16:20:16;14.38;;;4.78;;
49942;SDS011;36011;53.362;58.948;2023-11-22T16:23:22;12.02;;;4.22;;
49942;SDS011;36011;53.362;58.948;2023-11-22T16:26:30;13.13;;;4.75;;
49942;SDS011;36011;53.362;58.948;2023-11-22T16:29:37;12.85;;;3.92;;
49942;SDS011;36011;53.362;58.948;2023-11-22T16:32:38;9.13;;;3.92;;
49942;SDS011;36011;53.362;58.948;2023-11-22T16:35:44;8.63;;;3.97;;
49942;SDS011;36011;53.362;58.948;2023-11-22T16:38:48;9.18;;;4.22;;
49942;SDS011;36011;53.362;58.948;2023-11-22T16:41:52;8.82;;;3.80;;
49942;SDS011;36011;53.362;58.948;2023-11-22T16:44:53;9.85;;;4.07;;
49942;SDS011;36011;53.362;58.948;2023-11-22T16:47:55;7.15;;;3.90;;
49942;SDS011;36011;53.362;58.948;2023-11-22T16:51:00;8.30;;;4.28;;
49942;SDS011;36011;53.362;58.948;2023-11-22T16:54:03;33.63;;;12.52;;
49942;SDS011;36011;53.362;58.948;2023-11-22T17:00:13;6.05;;;4.38;;
49942;SDS011;36011;53.362;58.948;2023-11-22T17:03:22;8.38;;;4.65;;
49942;SDS011;36011;53.362;58.948;2023-11-22T17:06:24;7.50;;;4.70;;
49942;SDS011;36011;53.362;58.948;2023-11-22T17:09:26;8.07;;;4.15;;
49942;SDS011;36011;53.362;58.948;2023-11-22T17:12:30;6.63;;;4.07;;
49942;SDS011;36011;53.362;58.948;2023-11-22T17:15:34;6.60;;;3.70;;
49942;SDS011;36011;53.362;58.948;2023-11-22T17:18:39;9.88;;;4.43;;
49942;SDS011;36011;53.362;58.948;2023-11-22T17:21:45;8.98;;;4.45;;
49942;SDS011;36011;53.362;58.948;2023-11-22T17:24:56;5.78;;;3.90;;
49942;SDS011;36011;53.362;58.948;2023-11-22T17:28:01;11.60;;;4.88;;
49942;SDS011;36011;53.362;58.948;2023-11-22T17:31:07;8.75;;;4.28;;
49942;SDS011;36011;53.362;58.948;2023-11-22T17:34:09;5.50;;;3.75;;
49942;SDS011;36011;53.362;58.948;2023-11-22T17:37:14;6.68;;;3.60;;
49942;SDS011;36011;53.362;58.948;2023-11-22T17:40:18;5.30;;;3.67;;
49942;SDS011;36011;53.362;58.948;2023-11-22T17:43:21;7.68;;;3.45;;
49942;SDS011;36011;53.362;58.948;2023-11-22T17:46:27;6.20;;;3.55;;
49942;SDS011;36011;53.362;58.948;2023-11-22T17:49:35;18.27;;;9.07;;
49942;SDS011;36011;53.362;58.948;2023-11-22T17:52:39;6.57;;;4.25;;
49942;SDS011;36011;53.362;58.948;2023-11-22T17:55:43;6.60;;;3.88;;
49942;SDS011;36011;53.362;58.948;2023-11-22T17:58:47;10.00;;;5.43;;
49942;SDS011;36011;53.362;58.948;2023-11-22T18:04:53;7.65;;;4.90;;
49942;SDS011;36011;53.362;58.948;2023-11-22T18:07:54;10.50;;;5.25;;
49942;SDS011;36011;53.362;58.948;2023-11-22T18:10:58;6.40;;;4.30;;
49942;SDS011;36011;53.362;58.948;2023-11-22T18:14:00;8.05;;;4.88;;
49942;SDS011;36011;53.362;58.948;2023-11-22T18:17:03;7.00;;;4.00;;
49942;SDS011;36011;53.362;58.948;2023-11-22T18:20:09;7.13;;;4.28;;
49942;SDS011;36011;53.362;58.948;2023-11-22T18:23:14;8.02;;;4.32;;